Terminal Aerodrome Forecast
Issued by NWS Mt. Holly, NJ

Home | Current Version | Previous Version | Text Only | Print | Product List | Glossary On
Versions: 1 2 3 4 5 6 7 8 9 10 11 12 13 14 15 16 17
000
FTUS41 KPHI 030906 AAA
TAFILG
TAF AMD
KILG 030906Z 0309/0406 VRB03KT 6SM HZ SKC
      TEMPO 0309/0312 4SM BR
     FM031300 36006KT P6SM SCT250
     FM031800 32006KT P6SM SCT045
     FM040000 VRB03KT P6SM SCT045=

USA.gov is the U.S. government's official web portal to all federal, state and local government web resources and services.